Time;durP1;ratioP1;P1;durP2;ratioP2;P2;SDS_P1;SDS_P2;PMS_P1;PMS_P2;Temp;Humidity;BMP_temperature;BMP_pressure;BME280_temperature;BME280_humidity;BME280_pressure;Samples;Min_cycle;Max_cycle;Signal;HPM_P1;HPM_P2
2024/03/09 00:00:40;;;;;;;34.15;21.38;;;6.50;99.90;;;;;;5090417;28;20070;-75
2024/03/09 00:03:10;;;;;;;34.37;22.43;;;6.50;99.90;;;;;;5090312;28;20016;-75
2024/03/09 00:05:39;;;;;;;35.30;22.50;;;6.50;99.90;;;;;;5089499;28;20031;-75
2024/03/09 00:08:07;;;;;;;36.70;22.13;;;6.50;99.90;;;;;;5089155;28;20504;-75
2024/03/09 00:10:33;;;;;;;35.83;22.13;;;6.40;99.90;;;;;;5089565;28;20048;-75
2024/03/09 00:12:59;;;;;;;35.65;23.35;;;6.40;99.90;;;;;;5089262;28;20216;-74
2024/03/09 00:15:27;;;;;;;33.70;22.02;;;6.40;99.90;;;;;;5089354;28;20484;-75
2024/03/09 00:17:54;;;;;;;36.85;22.90;;;6.40;99.90;;;;;;5088278;28;20181;-74
2024/03/09 00:20:21;;;;;;;32.88;21.02;;;6.40;99.90;;;;;;5071098;28;20492;-75
2024/03/09 00:22:48;;;;;;;33.30;21.95;;;6.40;99.90;;;;;;5070550;28;20024;-75
2024/03/09 00:25:14;;;;;;;34.20;22.65;;;6.30;99.90;;;;;;5083686;28;20485;-75
2024/03/09 00:27:40;;;;;;;33.55;22.15;;;6.30;99.90;;;;;;5088813;28;20028;-75
2024/03/09 00:30:17;;;;;;;36.70;23.48;;;6.30;99.90;;;;;;5089018;28;20065;-75
2024/03/09 00:32:57;;;;;;;32.53;21.50;;;6.30;99.90;;;;;;5088560;28;20541;-75
2024/03/09 00:35:24;;;;;;;35.88;23.02;;;6.30;99.90;;;;;;5070758;28;20035;-75
2024/03/09 00:37:50;;;;;;;33.25;22.73;;;6.20;99.90;;;;;;5088373;28;20024;-75
2024/03/09 00:40:17;;;;;;;33.85;21.80;;;6.20;99.90;;;;;;5081647;28;20032;-74
2024/03/09 00:42:45;;;;;;;32.08;20.98;;;6.20;99.90;;;;;;5081890;28;20385;-75
2024/03/09 00:45:13;;;;;;;34.42;22.80;;;6.20;99.90;;;;;;5070406;28;20031;-74
2024/03/09 00:47:40;;;;;;;34.67;21.75;;;6.20;99.90;;;;;;5088636;28;20024;-73
2024/03/09 00:50:07;;;;;;;39.75;22.75;;;6.20;99.90;;;;;;5070519;28;20040;-75
2024/03/09 00:52:34;;;;;;;36.53;23.45;;;6.10;99.90;;;;;;5088454;28;20035;-73
2024/03/09 00:55:00;;;;;;;34.65;21.58;;;6.10;99.90;;;;;;5088556;28;20036;-75
2024/03/09 00:57:25;;;;;;;32.92;21.42;;;6.10;99.90;;;;;;5087988;28;20028;-75
2024/03/09 00:59:54;;;;;;;37.08;23.50;;;6.10;99.90;;;;;;5070266;28;20145;-75
2024/03/09 01:02:20;;;;;;;36.00;23.50;;;6.00;99.90;;;;;;5087986;28;20473;-75
2024/03/09 01:04:50;;;;;;;32.45;21.13;;;6.10;99.90;;;;;;5088412;28;20393;-75
2024/03/09 01:07:23;;;;;;;34.30;21.93;;;6.00;99.90;;;;;;5088287;28;20035;-74
2024/03/09 01:09:49;;;;;;;34.53;21.08;;;6.00;99.90;;;;;;5088553;28;20032;-75
2024/03/09 01:12:17;;;;;;;37.05;23.55;;;6.00;99.90;;;;;;5088158;28;20028;-75
2024/03/09 01:14:47;;;;;;;31.70;21.85;;;6.00;99.90;;;;;;5088548;28;20028;-75
2024/03/09 01:17:23;;;;;;;38.50;22.48;;;6.00;99.90;;;;;;5087889;28;20115;-75
2024/03/09 01:19:50;;;;;;;34.75;21.83;;;6.00;99.90;;;;;;5074765;28;20028;-74
2024/03/09 01:22:17;;;;;;;36.38;23.10;;;5.90;99.90;;;;;;5087730;28;20024;-72
2024/03/09 01:24:43;;;;;;;37.45;22.77;;;5.90;99.90;;;;;;5087808;28;20024;-74
2024/03/09 01:27:09;;;;;;;36.28;21.98;;;5.90;99.90;;;;;;5088546;28;20099;-75
2024/03/09 01:29:35;;;;;;;34.67;22.23;;;5.90;99.90;;;;;;5087722;28;20115;-75
2024/03/09 01:32:05;;;;;;;32.47;21.35;;;5.80;99.90;;;;;;5088738;28;20047;-75
2024/03/09 01:34:31;;;;;;;35.78;22.17;;;5.80;99.90;;;;;;5088483;28;20028;-75
2024/03/09 01:36:57;;;;;;;40.50;22.70;;;5.80;99.90;;;;;;5088324;28;20031;-74
2024/03/09 01:39:23;;;;;;;36.92;22.63;;;5.80;99.90;;;;;;5088009;28;20492;-75
2024/03/09 01:41:50;;;;;;;37.10;23.73;;;5.80;99.90;;;;;;5087828;28;20389;-75
2024/03/09 01:44:21;;;;;;;33.22;21.85;;;5.80;99.90;;;;;;5087519;28;20016;-74
2024/03/09 01:46:49;;;;;;;38.65;23.77;;;5.80;99.90;;;;;;5087984;28;20032;-75
2024/03/09 01:49:15;;;;;;;33.88;23.00;;;5.70;99.90;;;;;;5069424;28;20020;-74
2024/03/09 01:51:45;;;;;;;36.30;22.75;;;5.70;99.90;;;;;;5087495;28;20024;-75
2024/03/09 01:54:19;;;;;;;37.13;23.30;;;5.70;99.90;;;;;;5073006;28;20024;-74
2024/03/09 01:56:48;;;;;;;33.72;21.75;;;5.70;99.90;;;;;;5087397;28;20402;-74
2024/03/09 01:59:17;;;;;;;30.80;17.75;;;5.70;99.90;;;;;;5087028;28;20703;-77
2024/03/09 02:01:45;;;;;;;34.95;21.92;;;5.60;99.90;;;;;;5087023;28;20017;-73
2024/03/09 02:04:11;;;;;;;33.85;21.58;;;5.60;99.90;;;;;;5086780;28;20085;-73
2024/03/09 02:06:37;;;;;;;36.25;22.30;;;5.60;99.90;;;;;;5085814;28;20139;-73
2024/03/09 02:09:07;;;;;;;36.10;22.95;;;5.60;99.90;;;;;;5087018;28;20020;-74
2024/03/09 02:11:37;;;;;;;36.57;23.63;;;5.60;99.90;;;;;;5087868;28;20045;-74
2024/03/09 02:14:07;;;;;;;37.25;23.52;;;5.60;99.90;;;;;;5088291;28;20272;-74
2024/03/09 02:16:33;;;;;;;33.05;21.02;;;5.60;99.90;;;;;;5070246;28;20032;-74
2024/03/09 02:19:00;;;;;;;35.60;23.02;;;5.60;99.90;;;;;;5088551;28;20031;-74
2024/03/09 02:21:27;;;;;;;37.95;21.00;;;5.50;99.90;;;;;;5087290;28;20028;-74
2024/03/09 02:24:02;;;;;;;36.28;23.50;;;5.50;99.90;;;;;;5086831;28;20503;-74
2024/03/09 02:26:28;;;;;;;37.03;21.27;;;5.50;99.90;;;;;;5087632;28;20035;-74
2024/03/09 02:28:55;;;;;;;33.40;21.25;;;5.50;99.90;;;;;;5068404;28;20021;-73
2024/03/09 02:31:25;;;;;;;35.40;22.50;;;5.50;99.90;;;;;;5087120;28;20126;-74
2024/03/09 02:33:53;;;;;;;38.22;21.90;;;5.40;99.90;;;;;;5083767;28;20141;-73
2024/03/09 02:36:26;;;;;;;36.28;22.67;;;5.40;99.90;;;;;;5083779;28;20055;-74
2024/03/09 02:38:52;;;;;;;37.55;23.73;;;5.40;99.90;;;;;;5086724;28;20027;-73
2024/03/09 02:41:19;;;;;;;36.60;22.60;;;5.40;99.90;;;;;;5068816;28;20024;-74
2024/03/09 02:43:46;;;;;;;35.72;22.45;;;5.40;99.90;;;;;;5086408;28;20019;-74
2024/03/09 02:46:15;;;;;;;36.20;23.30;;;5.40;99.90;;;;;;5086926;28;20556;-73
2024/03/09 02:48:43;;;;;;;34.63;21.17;;;5.30;99.90;;;;;;5068226;28;20024;-74
2024/03/09 02:51:12;;;;;;;35.60;22.67;;;5.40;99.90;;;;;;5086796;28;20047;-74
2024/03/09 02:53:40;;;;;;;32.85;21.95;;;5.30;99.90;;;;;;5086539;28;20036;-74
2024/03/09 02:56:18;;;;;;;35.95;23.52;;;5.30;99.90;;;;;;5086753;28;20055;-73
2024/03/09 02:58:44;;;;;;;38.55;22.85;;;5.30;99.90;;;;;;5086364;28;20052;-74
2024/03/09 03:01:11;;;;;;;34.95;22.00;;;5.20;99.90;;;;;;5068753;28;20024;-74
2024/03/09 03:03:47;;;;;;;37.30;22.65;;;5.20;99.90;;;;;;5068415;28;20024;-75
2024/03/09 03:06:20;;;;;;;34.58;21.45;;;5.20;99.90;;;;;;5074302;28;20027;-74
2024/03/09 03:08:55;;;;;;;38.15;23.88;;;5.20;99.90;;;;;;5087090;28;20081;-74
2024/03/09 03:11:21;;;;;;;32.13;20.73;;;5.20;99.90;;;;;;5087153;28;20039;-74
2024/03/09 03:13:49;;;;;;;38.80;23.08;;;5.20;99.90;;;;;;5068326;28;20035;-75
2024/03/09 03:16:22;;;;;;;34.55;21.67;;;5.10;99.90;;;;;;5068480;28;20435;-74
2024/03/09 03:18:48;;;;;;;33.78;21.65;;;5.20;99.90;;;;;;5086300;28;20024;-74
2024/03/09 03:21:18;;;;;;;39.78;22.88;;;5.20;99.90;;;;;;5086755;28;20024;-74
2024/03/09 03:23:47;;;;;;;33.50;20.98;;;5.10;99.90;;;;;;5086236;28;20031;-74
2024/03/09 03:26:14;;;;;;;35.95;21.88;;;5.10;99.90;;;;;;5086894;28;20062;-74
2024/03/09 03:28:49;;;;;;;37.00;22.83;;;5.10;99.90;;;;;;5086549;28;20053;-73
2024/03/09 03:31:16;;;;;;;34.72;21.90;;;5.10;99.90;;;;;;5086657;28;20020;-74
2024/03/09 03:33:43;;;;;;;34.45;21.27;;;5.10;99.90;;;;;;5085911;28;20031;-74
2024/03/09 03:36:10;;;;;;;38.30;23.05;;;5.00;99.90;;;;;;5086339;28;20133;-74
2024/03/09 03:38:36;;;;;;;39.97;24.15;;;5.00;99.90;;;;;;5085992;28;20021;-74
2024/03/09 03:41:10;;;;;;;36.40;22.05;;;5.10;99.90;;;;;;5086349;28;20084;-74
2024/03/09 03:43:37;;;;;;;33.83;21.52;;;5.00;99.90;;;;;;5083110;28;20024;-73
2024/03/09 03:46:05;;;;;;;35.35;21.67;;;5.00;99.90;;;;;;5086626;28;20596;-74
2024/03/09 03:48:31;;;;;;;37.38;22.50;;;5.00;99.90;;;;;;5086080;28;20028;-74
2024/03/09 03:50:58;;;;;;;33.95;21.30;;;5.00;99.90;;;;;;5085731;28;20032;-74
2024/03/09 03:53:24;;;;;;;33.53;21.60;;;5.00;99.90;;;;;;5069948;28;20689;-74
2024/03/09 03:55:51;;;;;;;35.65;21.98;;;5.10;99.90;;;;;;5089715;28;20020;-74
2024/03/09 03:58:17;;;;;;;37.65;21.98;;;5.00;99.90;;;;;;5071600;28;20019;-74
2024/03/09 04:00:49;;;;;;;32.50;20.85;;;5.00;99.90;;;;;;5090514;28;20018;-74
2024/03/09 04:03:16;;;;;;;36.95;21.48;;;5.00;99.90;;;;;;5089898;28;20245;-74
2024/03/09 04:05:45;;;;;;;35.67;22.23;;;5.00;99.90;;;;;;5088991;28;20477;-75
2024/03/09 04:08:11;;;;;;;33.58;22.45;;;5.00;99.90;;;;;;5089357;28;20081;-74
2024/03/09 04:10:49;;;;;;;33.95;22.30;;;5.00;99.90;;;;;;5071309;28;20040;-73
2024/03/09 04:13:16;;;;;;;35.00;22.23;;;5.00;99.90;;;;;;5070644;28;20047;-75
2024/03/09 04:15:47;;;;;;;35.00;21.67;;;5.00;99.90;;;;;;5089157;28;20071;-74
2024/03/09 04:18:15;;;;;;;34.35;21.95;;;5.00;99.90;;;;;;5089110;28;20030;-74
2024/03/09 04:20:41;;;;;;;36.72;22.27;;;5.00;99.90;;;;;;5071552;28;20035;-74
2024/03/09 04:23:08;;;;;;;35.92;22.40;;;5.00;99.90;;;;;;5089306;28;20481;-74
2024/03/09 04:25:55;;;;;;;35.80;22.85;;;5.00;99.90;;;;;;5089273;28;20043;-73
2024/03/09 04:28:22;;;;;;;35.85;22.60;;;5.00;99.90;;;;;;5058559;28;20031;-73
2024/03/09 04:30:51;;;;;;;33.17;20.98;;;5.00;99.90;;;;;;5071558;28;20050;-73
2024/03/09 04:33:21;;;;;;;36.45;22.63;;;5.10;99.90;;;;;;5089527;28;20030;-74
2024/03/09 04:35:47;;;;;;;40.13;23.75;;;5.00;99.90;;;;;;5083815;28;20032;-73
2024/03/09 04:38:14;;;;;;;35.65;22.73;;;5.00;99.90;;;;;;5071305;28;20803;-74
2024/03/09 04:40:43;;;;;;;36.03;22.85;;;5.00;99.90;;;;;;5089167;28;20043;-74
2024/03/09 04:43:09;;;;;;;34.17;22.23;;;5.00;99.90;;;;;;5070364;28;20124;-74
2024/03/09 04:45:35;;;;;;;34.28;21.65;;;5.00;99.90;;;;;;5088749;28;20047;-74
2024/03/09 04:48:01;;;;;;;37.35;23.15;;;5.00;99.90;;;;;;5088542;28;20076;-74
2024/03/09 04:50:28;;;;;;;36.58;22.60;;;5.00;99.90;;;;;;5088844;28;20043;-74
2024/03/09 04:52:54;;;;;;;35.45;21.63;;;5.00;99.90;;;;;;5088413;28;20042;-74
2024/03/09 04:55:27;;;;;;;36.63;23.10;;;5.00;99.90;;;;;;5088454;28;20489;-74
2024/03/09 04:57:57;;;;;;;34.83;21.52;;;5.00;99.90;;;;;;5088049;28;20030;-74
2024/03/09 05:00:26;;;;;;;36.33;22.50;;;5.00;99.90;;;;;;5088750;28;20028;-74
2024/03/09 05:02:52;;;;;;;38.20;21.70;;;5.00;99.90;;;;;;5087883;28;20501;-74
2024/03/09 05:05:18;;;;;;;33.58;19.98;;;5.00;99.90;;;;;;5087598;28;20055;-74
2024/03/09 05:07:49;;;;;;;32.13;20.42;;;5.00;99.90;;;;;;5088222;28;20021;-74
2024/03/09 05:10:20;;;;;;;36.50;22.48;;;5.00;99.90;;;;;;5088600;28;20043;-74
2024/03/09 05:12:56;;;;;;;33.38;21.15;;;5.00;99.90;;;;;;5069598;28;20024;-74
2024/03/09 05:15:29;;;;;;;35.30;21.77;;;5.00;99.90;;;;;;5088297;28;20041;-74
2024/03/09 05:17:55;;;;;;;34.88;20.35;;;5.00;99.90;;;;;;5087780;28;20051;-74
2024/03/09 05:20:25;;;;;;;34.33;21.92;;;4.90;99.90;;;;;;5088313;28;20016;-75
2024/03/09 05:22:54;;;;;;;31.13;19.98;;;4.90;99.90;;;;;;5087591;28;20505;-75
2024/03/09 05:25:23;;;;;;;34.28;21.27;;;4.90;99.90;;;;;;5069878;28;20028;-75
2024/03/09 05:27:51;;;;;;;37.33;21.17;;;4.90;99.90;;;;;;5087747;28;20028;-74
2024/03/09 05:30:19;;;;;;;34.50;21.42;;;4.90;99.90;;;;;;5069827;28;20035;-74
2024/03/09 05:32:51;;;;;;;37.03;20.83;;;4.90;99.90;;;;;;5087256;28;20028;-74
2024/03/09 05:35:17;;;;;;;37.15;22.92;;;4.90;99.90;;;;;;5081528;28;20039;-74
2024/03/09 05:37:43;;;;;;;32.42;19.67;;;4.90;99.90;;;;;;5069360;28;20021;-74
2024/03/09 05:40:10;;;;;;;31.65;20.75;;;4.90;99.90;;;;;;5087775;28;20028;-75
2024/03/09 05:42:37;;;;;;;35.10;21.27;;;4.80;99.90;;;;;;5087852;28;20012;-74
2024/03/09 05:45:09;;;;;;;31.98;21.40;;;4.90;99.90;;;;;;5087422;28;20031;-75
2024/03/09 05:47:36;;;;;;;35.97;21.10;;;4.80;99.90;;;;;;5087676;28;20030;-74
2024/03/09 05:50:01;;;;;;;35.95;22.20;;;4.70;99.90;;;;;;5087258;28;20412;-74
2024/03/09 05:52:27;;;;;;;32.47;21.15;;;4.70;99.90;;;;;;5087971;28;20016;-75
2024/03/09 05:54:52;;;;;;;34.95;19.98;;;4.70;99.90;;;;;;5087662;28;20032;-74
2024/03/09 05:57:22;;;;;;;34.78;21.88;;;4.70;99.90;;;;;;5088292;28;20074;-74
2024/03/09 05:59:49;;;;;;;33.85;21.90;;;4.70;99.90;;;;;;5087200;28;20043;-74
2024/03/09 06:02:14;;;;;;;33.45;21.23;;;4.70;99.90;;;;;;5069392;28;20040;-75
2024/03/09 06:04:41;;;;;;;34.42;22.17;;;4.70;99.90;;;;;;5087239;28;20178;-74
2024/03/09 06:07:06;;;;;;;36.08;21.83;;;4.70;99.90;;;;;;5087434;28;20024;-74
2024/03/09 06:09:32;;;;;;;35.53;22.63;;;4.70;99.90;;;;;;5086944;28;20035;-74
2024/03/09 06:11:57;;;;;;;35.30;21.27;;;4.70;99.90;;;;;;5087627;28;20027;-75
2024/03/09 06:14:23;;;;;;;33.80;21.23;;;4.70;99.90;;;;;;5087279;28;20504;-75
2024/03/09 06:16:49;;;;;;;35.53;21.45;;;4.70;99.90;;;;;;5086999;28;20031;-75
2024/03/09 06:19:15;;;;;;;34.67;20.67;;;4.70;99.90;;;;;;5086943;28;20032;-75
2024/03/09 06:21:42;;;;;;;34.45;22.38;;;4.70;99.90;;;;;;5087198;28;20024;-74
2024/03/09 06:24:07;;;;;;;35.70;20.67;;;4.70;99.90;;;;;;5086902;28;20028;-75
2024/03/09 06:26:34;;;;;;;34.92;21.45;;;4.70;99.90;;;;;;5086986;28;20082;-74
2024/03/09 06:28:59;;;;;;;29.08;19.52;;;4.70;99.90;;;;;;5086591;28;20027;-74
2024/03/09 06:31:25;;;;;;;33.53;20.48;;;4.70;99.90;;;;;;5087178;28;20027;-74
2024/03/09 06:33:51;;;;;;;35.88;22.98;;;4.70;99.90;;;;;;5086589;28;20031;-74
2024/03/09 06:36:18;;;;;;;33.45;19.52;;;4.70;99.90;;;;;;5086773;28;20154;-74
2024/03/09 06:38:44;;;;;;;31.95;20.02;;;4.80;99.90;;;;;;5086782;28;20034;-75
2024/03/09 06:41:10;;;;;;;32.33;20.30;;;4.70;99.90;;;;;;5086957;28;20384;-75
2024/03/09 06:43:36;;;;;;;33.20;20.77;;;4.80;99.90;;;;;;5078269;28;20052;-75
2024/03/09 06:46:03;;;;;;;32.78;20.13;;;4.80;99.90;;;;;;5087552;28;20028;-73
2024/03/09 06:48:29;;;;;;;36.05;21.52;;;4.80;99.90;;;;;;5068293;28;20516;-73
2024/03/09 06:50:56;;;;;;;32.95;20.30;;;4.80;99.90;;;;;;5086031;28;20054;-73
2024/03/09 06:53:25;;;;;;;33.28;19.17;;;4.80;99.90;;;;;;5086894;28;20064;-74
2024/03/09 06:55:51;;;;;;;32.35;20.80;;;4.80;99.90;;;;;;5085846;28;20028;-75
2024/03/09 06:58:17;;;;;;;31.30;19.15;;;4.80;99.90;;;;;;5085918;28;20048;-76
2024/03/09 07:00:43;;;;;;;33.40;20.63;;;4.80;99.90;;;;;;5085566;28;20051;-75
2024/03/09 07:03:09;;;;;;;33.85;21.20;;;4.90;99.90;;;;;;5067676;28;20111;-75
2024/03/09 07:05:35;;;;;;;33.38;20.13;;;4.90;99.90;;;;;;5085504;28;20020;-75
2024/03/09 07:08:03;;;;;;;34.55;21.40;;;4.90;99.90;;;;;;5085917;28;20052;-75
2024/03/09 07:10:31;;;;;;;31.75;19.38;;;4.90;99.90;;;;;;5085878;28;20020;-75
2024/03/09 07:12:57;;;;;;;32.35;20.58;;;4.90;99.90;;;;;;5083366;28;20024;-75
2024/03/09 07:15:25;;;;;;;34.72;21.05;;;4.90;99.90;;;;;;5078325;28;20400;-75
2024/03/09 07:17:54;;;;;;;27.98;17.27;;;5.00;99.90;;;;;;5087450;28;20421;-75
2024/03/09 07:20:23;;;;;;;29.92;18.95;;;5.00;99.90;;;;;;5086600;28;20020;-75
2024/03/09 07:22:50;;;;;;;30.90;19.40;;;5.00;99.90;;;;;;5087141;28;20072;-75
2024/03/09 07:25:24;;;;;;;30.60;19.75;;;5.00;99.90;;;;;;5067825;28;20447;-75
2024/03/09 07:27:54;;;;;;;31.17;20.60;;;5.00;99.90;;;;;;5087804;28;20027;-74
2024/03/09 07:30:21;;;;;;;32.77;20.80;;;5.10;99.90;;;;;;5089548;28;20028;-75
2024/03/09 07:32:49;;;;;;;29.38;18.77;;;5.10;99.90;;;;;;5070526;28;20795;-75
2024/03/09 07:35:19;;;;;;;30.15;19.95;;;5.10;99.90;;;;;;5074828;28;20025;-75
2024/03/09 07:37:52;;;;;;;28.88;19.17;;;5.20;99.90;;;;;;5084489;28;20028;-75
2024/03/09 07:40:22;;;;;;;29.85;19.17;;;5.20;99.90;;;;;;5089445;28;20858;-75
2024/03/09 07:42:49;;;;;;;28.67;18.65;;;5.20;99.90;;;;;;5090135;28;20020;-75
2024/03/09 07:45:15;;;;;;;30.73;18.83;;;5.20;99.90;;;;;;5088037;28;20556;-73
2024/03/09 07:47:46;;;;;;;30.58;19.88;;;5.20;99.90;;;;;;5071159;28;20162;-75
2024/03/09 07:50:21;;;;;;;31.80;20.37;;;5.30;99.90;;;;;;5091093;28;20052;-73
2024/03/09 07:52:48;;;;;;;29.73;19.33;;;5.30;99.90;;;;;;5090355;28;20323;-74
2024/03/09 07:55:20;;;;;;;30.35;20.23;;;5.40;99.90;;;;;;5089361;28;20059;-75
2024/03/09 07:57:46;;;;;;;30.40;18.83;;;5.40;99.90;;;;;;5089868;28;20041;-75
2024/03/09 08:00:17;;;;;;;30.00;18.67;;;5.40;99.90;;;;;;5089822;28;20097;-75
2024/03/09 08:02:46;;;;;;;30.02;19.25;;;5.40;99.90;;;;;;5083914;28;20346;-75
2024/03/09 08:05:16;;;;;;;27.95;18.83;;;5.50;99.90;;;;;;5056610;28;20532;-75
2024/03/09 08:07:43;;;;;;;31.63;19.77;;;5.50;99.90;;;;;;5070254;28;20078;-75
2024/03/09 08:10:19;;;;;;;30.27;19.60;;;5.50;99.90;;;;;;5063083;28;20035;-75
2024/03/09 08:12:49;;;;;;;27.42;18.00;;;5.60;99.90;;;;;;5085347;28;20108;-75
2024/03/09 08:15:15;;;;;;;29.80;19.35;;;5.50;99.90;;;;;;5075650;28;20020;-74
2024/03/09 08:17:42;;;;;;;31.90;20.17;;;5.60;99.90;;;;;;5060977;28;20055;-75
2024/03/09 08:20:08;;;;;;;29.85;19.88;;;5.60;99.90;;;;;;5077248;28;20071;-75
2024/03/09 08:22:39;;;;;;;31.77;19.75;;;5.60;99.90;;;;;;5082240;28;20021;-75
2024/03/09 08:25:11;;;;;;;30.08;19.77;;;5.60;99.90;;;;;;5072142;28;20032;-75
2024/03/09 08:27:38;;;;;;;30.33;19.88;;;5.70;99.90;;;;;;5073912;28;20047;-75
2024/03/09 08:30:08;;;;;;;32.03;20.08;;;5.70;99.90;;;;;;5068634;28;20028;-75
2024/03/09 08:32:35;;;;;;;29.77;18.58;;;5.70;99.90;;;;;;5077834;28;20086;-74
2024/03/09 08:35:09;;;;;;;29.00;19.08;;;5.80;99.90;;;;;;5082734;28;20894;-74
2024/03/09 08:37:41;;;;;;;30.83;19.48;;;5.90;99.90;;;;;;5074036;28;20031;-75
2024/03/09 08:40:16;;;;;;;28.80;18.50;;;6.00;99.90;;;;;;5072001;28;20066;-76
2024/03/09 08:42:51;;;;;;;28.42;18.42;;;6.00;99.90;;;;;;5081124;28;20489;-75
2024/03/09 08:45:18;;;;;;;27.77;17.40;;;6.10;99.90;;;;;;5083887;28;20135;-76
2024/03/09 08:47:44;;;;;;;28.25;18.77;;;6.10;99.90;;;;;;5084972;28;20026;-75
2024/03/09 08:50:13;;;;;;;30.45;18.83;;;6.20;99.90;;;;;;5077442;28;20448;-75
2024/03/09 08:52:39;;;;;;;29.15;18.48;;;6.20;99.90;;;;;;5067686;28;20104;-75
2024/03/09 08:55:12;;;;;;;28.27;18.13;;;6.30;99.90;;;;;;5062451;28;20081;-75
2024/03/09 08:57:46;;;;;;;29.63;18.85;;;6.40;99.90;;;;;;5076206;28;20026;-75
2024/03/09 09:00:13;;;;;;;27.17;17.92;;;6.50;99.90;;;;;;5085103;28;20035;-75
2024/03/09 09:02:41;;;;;;;30.02;19.00;;;6.60;99.90;;;;;;5088419;28;20369;-75
2024/03/09 09:05:18;;;;;;;29.25;18.75;;;6.70;99.90;;;;;;5070207;28;20044;-76
2024/03/09 09:07:47;;;;;;;26.60;18.45;;;6.70;99.90;;;;;;5069564;28;20493;-75
2024/03/09 09:10:14;;;;;;;28.30;18.60;;;6.80;99.90;;;;;;5080098;28;20056;-75
2024/03/09 09:12:49;;;;;;;28.42;18.05;;;6.80;99.90;;;;;;5068845;28;20561;-75
2024/03/09 09:15:16;;;;;;;29.70;17.92;;;6.90;99.90;;;;;;5078570;28;20386;-75
2024/03/09 09:17:42;;;;;;;26.33;17.05;;;7.00;99.90;;;;;;5084355;28;20046;-75
2024/03/09 09:20:11;;;;;;;24.73;16.73;;;7.10;99.90;;;;;;5084706;28;20016;-75
2024/03/09 09:22:38;;;;;;;22.90;15.20;;;7.20;99.90;;;;;;5083549;28;20473;-75
2024/03/09 09:25:06;;;;;;;21.60;15.10;;;7.30;99.90;;;;;;5080030;28;20127;-75
2024/03/09 09:27:34;;;;;;;23.02;15.70;;;7.40;99.90;;;;;;5072906;28;20502;-75
2024/03/09 09:30:01;;;;;;;24.60;15.57;;;7.50;99.90;;;;;;5079161;28;20032;-75
2024/03/09 09:32:27;;;;;;;26.00;16.58;;;7.60;99.90;;;;;;5079870;28;20032;-75
2024/03/09 09:34:53;;;;;;;24.70;15.60;;;7.70;99.90;;;;;;5063701;28;20052;-74
2024/03/09 09:37:19;;;;;;;25.92;16.60;;;7.80;99.90;;;;;;5070709;28;20060;-75
2024/03/09 09:39:46;;;;;;;23.40;15.25;;;7.90;99.90;;;;;;5070718;28;20024;-75
2024/03/09 09:42:12;;;;;;;23.92;15.27;;;8.00;99.90;;;;;;5086292;28;20065;-75
2024/03/09 09:44:40;;;;;;;22.85;15.30;;;8.10;99.90;;;;;;5058052;28;20515;-75
2024/03/09 09:47:06;;;;;;;23.20;15.35;;;8.20;99.90;;;;;;5074422;28;20035;-76
2024/03/09 09:49:32;;;;;;;26.35;16.50;;;8.30;99.90;;;;;;5058869;28;20020;-74
2024/03/09 09:51:58;;;;;;;23.27;15.80;;;8.40;99.90;;;;;;5055613;28;20021;-76
2024/03/09 09:54:28;;;;;;;25.80;16.50;;;8.50;99.90;;;;;;5071583;28;20327;-75
2024/03/09 09:56:55;;;;;;;24.88;16.35;;;8.60;99.90;;;;;;5071241;28;20089;-75
2024/03/09 09:59:21;;;;;;;22.95;16.27;;;8.80;99.90;;;;;;5070606;28;20020;-76
2024/03/09 10:01:47;;;;;;;22.02;14.80;;;8.80;99.90;;;;;;5068192;28;20029;-75
2024/03/09 10:04:12;;;;;;;22.92;15.13;;;9.00;99.90;;;;;;5077145;28;20081;-76
2024/03/09 10:06:38;;;;;;;29.77;20.60;;;9.10;99.90;;;;;;5079278;28;20066;-75
2024/03/09 10:09:04;;;;;;;21.77;14.90;;;9.20;99.90;;;;;;5081259;28;20096;-75
2024/03/09 10:11:33;;;;;;;27.00;16.92;;;9.40;99.90;;;;;;5079538;28;20063;-75
2024/03/09 10:14:01;;;;;;;21.35;14.50;;;9.50;99.90;;;;;;5074908;28;20059;-74
2024/03/09 10:16:31;;;;;;;24.10;16.17;;;9.60;99.90;;;;;;5083504;28;20071;-74
2024/03/09 10:18:59;;;;;;;22.35;15.35;;;9.70;99.90;;;;;;5060480;28;20051;-74
2024/03/09 10:21:38;;;;;;;22.40;15.80;;;9.80;99.90;;;;;;5054597;28;20027;-74
2024/03/09 10:24:08;;;;;;;20.70;14.82;;;9.90;99.90;;;;;;5076697;28;20031;-74
2024/03/09 10:26:34;;;;;;;21.60;14.90;;;10.00;99.90;;;;;;5058762;28;20477;-74
2024/03/09 10:29:02;;;;;;;21.52;15.52;;;10.10;99.90;;;;;;5083463;28;20027;-74
2024/03/09 10:31:29;;;;;;;22.13;14.57;;;10.30;99.90;;;;;;5086235;28;20096;-74
2024/03/09 10:33:56;;;;;;;22.25;14.82;;;10.40;99.90;;;;;;5083961;28;20735;-74
2024/03/09 10:36:25;;;;;;;22.70;14.82;;;10.60;99.90;;;;;;5078326;28;20032;-75
2024/03/09 10:38:55;;;;;;;60.83;25.23;;;10.60;99.90;;;;;;5085333;28;20085;-74
2024/03/09 10:41:25;;;;;;;29.67;17.83;;;10.70;99.90;;;;;;5086510;28;20031;-75
2024/03/09 10:43:52;;;;;;;27.83;16.83;;;10.80;99.90;;;;;;5083377;28;20024;-74
2024/03/09 10:46:23;;;;;;;27.42;16.52;;;11.00;99.90;;;;;;5050171;28;20016;-74
2024/03/09 10:48:53;;;;;;;22.13;15.23;;;11.10;99.90;;;;;;5051823;28;20028;-74
2024/03/09 10:51:40;;;;;;;28.92;18.48;;;11.20;99.90;;;;;;5076731;28;20592;-74
2024/03/09 10:54:38;;;;;;;48.35;23.02;;;11.40;99.90;;;;;;5067560;28;20047;-74
2024/03/09 10:57:11;;;;;;;46.53;22.65;;;11.50;99.90;;;;;;5070029;28;20040;-74
2024/03/09 10:59:41;;;;;;;162.77;54.05;;;11.60;99.90;;;;;;5079870;28;20094;-73
2024/03/09 11:02:07;;;;;;;29.58;18.15;;;11.60;99.90;;;;;;5056688;28;20520;-74
2024/03/09 11:04:34;;;;;;;26.95;16.50;;;11.80;99.90;;;;;;5059148;28;20058;-75
2024/03/09 11:07:01;;;;;;;25.70;15.32;;;11.90;99.90;;;;;;5078267;28;20047;-74
2024/03/09 11:09:31;;;;;;;33.95;18.35;;;12.00;99.90;;;;;;5085035;28;20489;-73
2024/03/09 11:12:01;;;;;;;24.17;15.25;;;12.10;99.90;;;;;;5071057;28;20086;-74
2024/03/09 11:14:27;;;;;;;34.10;18.33;;;12.10;99.90;;;;;;5074769;28;20051;-75
2024/03/09 11:16:53;;;;;;;24.23;14.02;;;12.20;99.90;;;;;;5088680;28;20055;-73
2024/03/09 11:19:20;;;;;;;56.15;27.50;;;12.20;99.90;;;;;;5085574;28;20016;-74
2024/03/09 11:21:48;;;;;;;21.75;15.48;;;12.20;99.90;;;;;;5090954;28;20110;-75
2024/03/09 11:24:15;;;;;;;30.13;19.13;;;12.30;99.90;;;;;;5072004;28;20537;-74
2024/03/09 11:26:50;;;;;;;24.23;15.82;;;12.30;99.90;;;;;;5082680;28;20035;-74
2024/03/09 11:29:40;;;;;;;23.23;14.82;;;12.30;99.90;;;;;;5076141;28;20028;-74
2024/03/09 11:32:11;;;;;;;31.77;18.52;;;12.20;99.90;;;;;;5079864;28;20016;-74
2024/03/09 11:34:38;;;;;;;29.90;17.55;;;12.20;99.90;;;;;;5083074;28;20032;-75
2024/03/09 11:37:08;;;;;;;23.55;15.10;;;12.30;99.90;;;;;;5071119;28;20043;-74
2024/03/09 11:39:40;;;;;;;30.58;15.25;;;12.40;99.90;;;;;;5075474;28;20044;-76
2024/03/09 11:42:11;;;;;;;158.65;48.20;;;12.50;99.90;;;;;;5075939;28;20020;-73
2024/03/09 11:44:38;;;;;;;75.70;28.80;;;12.50;99.90;;;;;;5076321;28;20131;-73
2024/03/09 11:47:05;;;;;;;29.30;17.17;;;12.60;99.90;;;;;;5080801;28;20020;-75
2024/03/09 11:49:33;;;;;;;45.80;21.08;;;12.70;99.90;;;;;;5071743;28;20021;-76
2024/03/09 11:51:59;;;;;;;362.65;115.55;;;12.80;99.90;;;;;;5052931;28;20035;-75
2024/03/09 11:54:27;;;;;;;134.15;50.03;;;12.90;99.90;;;;;;5060023;28;20051;-72
2024/03/09 11:56:55;;;;;;;46.17;23.10;;;13.00;99.90;;;;;;5085627;28;20138;-72
2024/03/09 11:59:21;;;;;;;23.70;15.13;;;13.10;99.90;;;;;;5090553;28;20031;-74
2024/03/09 12:01:50;;;;;;;19.23;13.40;;;13.30;99.90;;;;;;5084664;28;20057;-74
2024/03/09 12:04:19;;;;;;;17.85;12.80;;;13.20;99.90;;;;;;5059233;28;20016;-74
2024/03/09 12:06:44;;;;;;;20.15;13.20;;;13.30;99.90;;;;;;5077447;28;20655;-73
2024/03/09 12:09:15;;;;;;;18.38;12.48;;;13.40;99.90;;;;;;5081036;28;20111;-75
2024/03/09 12:11:45;;;;;;;109.88;44.72;;;13.40;99.90;;;;;;5075180;28;20066;-75
2024/03/09 12:14:12;;;;;;;38.63;20.35;;;13.40;99.90;;;;;;5073630;28;20029;-76
2024/03/09 12:16:38;;;;;;;215.15;66.35;;;13.40;99.90;;;;;;5074394;28;20035;-75
2024/03/09 12:19:06;;;;;;;122.15;43.80;;;13.40;99.90;;;;;;5075322;28;20090;-75
2024/03/09 12:21:35;;;;;;;27.95;17.15;;;13.40;99.90;;;;;;5088180;28;20520;-74
2024/03/09 12:24:01;;;;;;;20.50;13.52;;;13.30;99.90;;;;;;5061479;28;20465;-74
2024/03/09 12:26:28;;;;;;;19.17;13.52;;;13.30;99.90;;;;;;5081103;28;20092;-74
2024/03/09 12:28:57;;;;;;;123.22;45.80;;;13.40;99.90;;;;;;5077682;28;20039;-75
2024/03/09 12:31:23;;;;;;;29.17;17.15;;;13.40;99.90;;;;;;5057984;28;20027;-75
2024/03/09 12:33:51;;;;;;;18.08;13.60;;;13.50;99.90;;;;;;5057519;28;20020;-76
2024/03/09 12:36:17;;;;;;;23.30;15.60;;;13.60;99.90;;;;;;5084335;28;20039;-74
2024/03/09 12:38:44;;;;;;;38.42;23.58;;;13.60;99.90;;;;;;5069173;28;20043;-75
2024/03/09 12:41:31;;;;;;;21.95;15.05;;;13.70;99.90;;;;;;5087408;28;20028;-75